Galveston, TX (77550)

9:40 PM CST on December 22, 2014 (GMT -0600)
Channelview Drive | Change Station
CLOSE
Current Station
Personal Weather Station
Location: Galveston, TX
Elevation: 20 ft
Nearby Weather Stations

Elev 20 ft 29.30 °N, 94.86 °W | Updated 10 minutes ago

Clear
Clear
62.3 °F
Feels Like 62.3 °F
N
5.0
Wind Variable Wind from SW

Today
High -- | Low -- °F
--% Chance of Precip.
Yesterday
High -- | Low -- °F
Precip. -- in
7:09 AM 5:25 PM
New Moon, 2% visible
Pressure 29.69 in
Visibility 6.0 miles
Clouds Mostly Cloudy 1500 ft
Dew Point 62 °F
Humidity 98%
Rainfall 0.00 in
Snow Depth Not available.
UV 0 out of 12
Pollen 7.00 out of 12
Air Quality Not available.
Flu Activity Not available.
SPECI KGLS 230331Z AUTO 21003KT 6SM BR BKN015 16/16 A2969 RMK AO1 T01560156

More Conditions Fewer Conditions

Pressure 29.69 in
Visibility 6.0 miles
Clouds Mostly Cloudy 1500 ft
Dew Point 62 °F
Humidity 98%
Rainfall 0.00 in
Snow Depth Not available.
UV 0 out of 12
Pollen 7.00 out of 12
Air Quality Not available.
Flu Activity Not available.
SPECI KGLS 230331Z AUTO 21003KT 6SM BR BKN015 16/16 A2969 RMK AO1 T01560156

More Conditions Fewer Conditions

10-Day Weather Forecast

Almanac

Astronomy

Dec. 22, 2014 Rise Set
Actual Time
Civil Twilight
Nautical Twilight
Astronomical Twilight
Moon
Length of Visible Light
Length of Day
Tomorrow will be .
, % of the Moon is Illuminated

Today's Extremes

State Highs State Lows

Community

WunderPhotos

Upload Photos

1,779,764 photos uploaded!

WunderBlogs® & News

Nearby

Air Quality

  Air Quality AQ Index Pollutant
Not available.

Snow Depth

Station Depth Elevation

Earthquake Activity

City Distance Mag. Time & Date
Minimum magnitude displayed is 2.5.

Coastal Water Temperatures

Place Temperature

Nearby Weather Stations